Huvudsida
METAR-TAF:

METAR-TAF

Flygplatser :

Mitiga International Airport

Tripoli, Libyen

latitud: 32-54N, longitud: 13-17E, höjd: 11 m

Aktuellt väderrapport

Denna rapport gjordes för 23 minuter sedan, klockan 07:50 UTC
Vind 8 kt från ost
Temperatur 25°C
Fuktighet 50%
Tryck 1019 hPa
Sikt: 7000 m

METAR: HLLM 270750Z 08008KT 7000 NSC 25/14 Q1019

Tid: 10:13 (08:13 UTC)

Väderprognos

Denna rapport gjordes för 9 timmar och 13 minuter sedan, klockan 23:00 UTC
Prognos gäller från 27 kl. 00 UTC till 27 kl. 24 UTC
Vind 10 kt från ost i byarna ända upp till 20 kt
Sikt: 8000 m
Få moln på en höjd av 2500 ft
Spridda moln på en höjd av 8000 ft

TAF: HLLM 262300Z 2700/2724 09010KT 8000 NSC BECMG2710/2712 06010G20KT 8000 FEW025 SCT080 BECMG2722/2724 09010KT

Aktuella väderrapporter och prognoser från 4000 flygplatser (METAR- och TAF-rapporter).

De tillgängliga stationerna syns som gula och röda prickar på kartan.

För musen över prickarna för att se namnen på stationerna.

Klicka sedan för att få väderrapporter och prognoser.

För att ändra kartan: Klicka på de gröna knapparna med ett svart kors på för att zooma in; den gröna knappen med ett streck på för att zooma ut; eller på de gröna pilarna för angränsande kartor.


METAR-TAF: